Time;durP1;ratioP1;P1;durP2;ratioP2;P2;SDS_P1;SDS_P2;PMS_P1;PMS_P2;Temp;Humidity;BMP_temperature;BMP_pressure;BME280_temperature;BME280_humidity;BME280_pressure;Samples;Min_cycle;Max_cycle;Signal;HPM_P1;HPM_P2
2023/07/04 00:01:00;;;;;;;2.77;2.00;;;20.00;99.90;;;;;;5013561;28;20416;-71
2023/07/04 00:03:29;;;;;;;2.30;1.93;;;20.10;99.90;;;;;;5013052;28;20186;-71
2023/07/04 00:05:55;;;;;;;2.50;2.10;;;20.10;99.90;;;;;;5013175;28;20470;-71
2023/07/04 00:08:22;;;;;;;2.43;2.23;;;20.10;99.90;;;;;;5015376;28;20783;-71
2023/07/04 00:10:50;;;;;;;3.47;2.00;;;20.00;99.90;;;;;;5013029;28;20400;-71
2023/07/04 00:13:17;;;;;;;2.00;1.80;;;20.10;99.90;;;;;;5013255;28;20403;-70
2023/07/04 00:15:44;;;;;;;2.13;1.80;;;20.00;99.90;;;;;;5013215;28;20410;-71
2023/07/04 00:18:10;;;;;;;2.53;2.33;;;20.10;99.90;;;;;;5012256;28;20458;-71
2023/07/04 00:20:37;;;;;;;2.67;2.30;;;20.10;99.90;;;;;;5013412;28;20430;-70
2023/07/04 00:23:03;;;;;;;3.10;2.50;;;19.90;99.90;;;;;;5013309;28;20159;-71
2023/07/04 00:25:28;;;;;;;2.43;1.87;;;19.80;99.90;;;;;;5012707;28;20685;-71
2023/07/04 00:27:54;;;;;;;3.30;2.50;;;20.00;99.90;;;;;;5013448;28;20171;-71
2023/07/04 00:30:20;;;;;;;3.37;2.00;;;20.00;99.90;;;;;;5011707;28;20657;-71
2023/07/04 00:32:45;;;;;;;3.70;2.00;;;19.90;99.90;;;;;;5012990;28;20160;-71
2023/07/04 00:35:11;;;;;;;4.30;2.47;;;19.90;99.90;;;;;;5012652;28;20250;-71
2023/07/04 00:37:37;;;;;;;2.60;2.33;;;20.00;99.90;;;;;;5013098;28;20258;-71
2023/07/04 00:40:09;;;;;;;2.53;1.87;;;20.20;99.90;;;;;;5012534;28;20188;-71
2023/07/04 00:42:36;;;;;;;2.07;1.87;;;20.10;99.90;;;;;;5013317;28;20204;-70
2023/07/04 00:45:09;;;;;;;2.20;2.00;;;20.10;99.90;;;;;;5012765;28;20454;-70
2023/07/04 00:47:43;;;;;;;2.33;2.10;;;20.20;99.90;;;;;;5012810;28;20457;-71
2023/07/04 00:50:13;;;;;;;2.53;1.90;;;20.10;99.90;;;;;;5012447;28;20945;-71
2023/07/04 00:52:39;;;;;;;4.60;2.17;;;20.20;99.90;;;;;;5013308;28;20379;-70
2023/07/04 00:55:10;;;;;;;3.07;1.97;;;20.20;99.90;;;;;;5012470;28;20410;-71
2023/07/04 00:57:37;;;;;;;3.57;2.40;;;20.10;99.90;;;;;;5013162;28;20391;-70
2023/07/04 01:00:17;;;;;;;3.30;2.37;;;20.20;99.90;;;;;;5012703;28;20477;-71
2023/07/04 01:02:45;;;;;;;2.27;2.00;;;20.20;99.90;;;;;;5012912;28;20391;-70
2023/07/04 01:05:17;;;;;;;2.60;2.30;;;20.30;99.90;;;;;;5011269;28;20443;-71
2023/07/04 01:08:03;;;;;;;3.60;2.17;;;20.40;99.90;;;;;;5012593;28;20874;-71
2023/07/04 01:10:33;;;;;;;3.67;2.63;;;20.40;99.90;;;;;;5012652;28;20464;-71
2023/07/04 01:13:00;;;;;;;6.20;2.47;;;20.30;99.90;;;;;;5012972;28;20994;-71
2023/07/04 01:15:29;;;;;;;2.57;2.37;;;20.20;99.90;;;;;;5012762;28;20431;-71
2023/07/04 01:17:56;;;;;;;3.30;3.00;;;20.30;99.90;;;;;;5012530;28;20549;-71
2023/07/04 01:20:23;;;;;;;2.93;2.43;;;20.40;99.90;;;;;;5012380;28;20403;-71
2023/07/04 01:23:02;;;;;;;3.33;2.63;;;20.40;99.90;;;;;;5012294;28;20410;-70
2023/07/04 01:25:46;;;;;;;3.40;2.50;;;20.40;99.90;;;;;;5012728;28;20521;-70
2023/07/04 01:28:14;;;;;;;3.40;2.50;;;20.30;99.90;;;;;;5012563;28;20434;-70
2023/07/04 01:30:42;;;;;;;3.10;2.60;;;20.30;99.90;;;;;;5013966;28;20459;-71
2023/07/04 01:33:09;;;;;;;5.07;2.23;;;20.30;99.90;;;;;;5015386;28;20407;-71
2023/07/04 01:35:36;;;;;;;2.50;2.10;;;20.20;99.90;;;;;;5015996;28;20777;-71
2023/07/04 01:38:01;;;;;;;3.30;2.10;;;20.20;99.90;;;;;;5015747;28;20779;-71
2023/07/04 01:40:27;;;;;;;4.33;2.73;;;20.40;99.90;;;;;;5015583;28;20545;-71
2023/07/04 01:42:53;;;;;;;2.60;2.30;;;20.30;99.90;;;;;;5015475;28;20172;-71
2023/07/04 01:45:19;;;;;;;4.10;2.40;;;20.40;99.90;;;;;;5015507;28;20507;-71
2023/07/04 01:47:45;;;;;;;3.80;2.60;;;20.40;99.90;;;;;;5015638;28;20251;-71
2023/07/04 01:50:12;;;;;;;3.73;2.37;;;20.40;99.90;;;;;;5014963;28;20451;-71
2023/07/04 01:52:40;;;;;;;4.00;2.67;;;20.30;99.90;;;;;;5015601;28;20164;-71
2023/07/04 01:55:08;;;;;;;2.70;2.10;;;20.20;99.90;;;;;;5015410;28;20487;-70
2023/07/04 01:57:34;;;;;;;3.37;2.50;;;20.10;99.90;;;;;;5015444;28;20447;-70
2023/07/04 01:59:59;;;;;;;4.33;2.80;;;20.20;99.90;;;;;;5014969;28;20450;-71
2023/07/04 02:02:25;;;;;;;3.17;2.60;;;20.00;99.90;;;;;;5015582;28;20458;-71
2023/07/04 02:04:51;;;;;;;3.83;3.00;;;20.10;99.90;;;;;;5015429;28;20267;-70
2023/07/04 02:07:16;;;;;;;3.57;2.80;;;20.20;99.90;;;;;;5017372;28;20179;-70
2023/07/04 02:09:42;;;;;;;6.13;3.23;;;20.30;99.90;;;;;;5015476;28;20622;-70
2023/07/04 02:12:09;;;;;;;2.90;2.40;;;20.30;99.90;;;;;;5015046;28;20207;-70
2023/07/04 02:14:34;;;;;;;4.47;2.47;;;20.10;99.90;;;;;;5015135;28;20407;-71
2023/07/04 02:17:00;;;;;;;2.73;2.40;;;20.20;99.90;;;;;;5014891;28;20422;-71
2023/07/04 02:19:26;;;;;;;4.33;2.47;;;20.20;99.90;;;;;;5013588;28;20223;-71
2023/07/04 02:21:51;;;;;;;3.43;2.70;;;20.30;99.90;;;;;;5015011;28;20169;-71
2023/07/04 02:24:17;;;;;;;3.33;2.40;;;20.30;99.90;;;;;;5015070;28;20191;-71
2023/07/04 02:26:42;;;;;;;2.70;2.40;;;20.20;99.90;;;;;;5014933;28;20622;-71
2023/07/04 02:29:08;;;;;;;2.83;2.60;;;20.20;99.90;;;;;;5014732;28;20203;-71
2023/07/04 02:31:33;;;;;;;4.27;2.77;;;20.30;99.90;;;;;;5014815;28;20504;-71
2023/07/04 02:33:59;;;;;;;3.03;2.33;;;20.30;99.90;;;;;;5014340;28;20180;-71
2023/07/04 02:36:25;;;;;;;2.60;2.40;;;20.30;99.90;;;;;;5014560;28;20164;-71
2023/07/04 02:38:51;;;;;;;2.83;2.30;;;20.30;99.90;;;;;;5014609;28;20832;-70
2023/07/04 02:41:16;;;;;;;2.80;2.57;;;20.30;99.90;;;;;;5014673;28;20180;-71
2023/07/04 02:43:42;;;;;;;3.60;2.30;;;20.20;99.90;;;;;;5014683;28;20168;-70
2023/07/04 02:46:08;;;;;;;2.77;2.10;;;20.20;99.90;;;;;;5014509;28;20283;-71
2023/07/04 02:48:34;;;;;;;2.60;2.40;;;20.20;99.90;;;;;;5013605;28;20618;-71
2023/07/04 02:51:00;;;;;;;3.03;2.00;;;20.20;99.90;;;;;;5014217;28;20411;-71
2023/07/04 02:53:26;;;;;;;4.10;1.93;;;20.10;99.90;;;;;;5014273;28;20168;-71
2023/07/04 02:55:53;;;;;;;2.80;2.30;;;20.00;99.90;;;;;;5014447;28;20411;-71
2023/07/04 02:58:20;;;;;;;3.03;2.30;;;19.90;99.90;;;;;;5014298;28;20816;-71
2023/07/04 03:00:49;;;;;;;3.27;2.33;;;19.90;99.90;;;;;;5014350;28;20445;-70
2023/07/04 03:03:16;;;;;;;3.40;2.00;;;19.80;99.90;;;;;;5013009;28;20457;-71
2023/07/04 03:05:42;;;;;;;4.37;2.33;;;19.80;99.90;;;;;;5013584;28;20443;-70
2023/07/04 03:08:08;;;;;;;3.10;2.37;;;19.80;99.90;;;;;;5013729;28;20767;-71
2023/07/04 03:10:34;;;;;;;2.33;2.13;;;19.60;99.90;;;;;;5013890;28;20775;-70
2023/07/04 03:13:00;;;;;;;2.43;2.20;;;19.70;99.90;;;;;;5013669;28;20175;-70
2023/07/04 03:15:25;;;;;;;2.70;2.50;;;19.70;99.90;;;;;;5013899;28;20175;-70
2023/07/04 03:17:51;;;;;;;2.50;2.20;;;19.80;99.90;;;;;;5013774;28;20407;-70
2023/07/04 03:20:17;;;;;;;2.13;1.93;;;19.80;99.90;;;;;;5013297;28;20175;-71
2023/07/04 03:22:45;;;;;;;2.17;1.97;;;19.80;99.90;;;;;;5013772;28;20411;-71
2023/07/04 03:25:11;;;;;;;3.20;2.43;;;19.80;99.90;;;;;;5013751;28;20633;-70
2023/07/04 03:27:39;;;;;;;4.77;2.90;;;19.70;99.90;;;;;;5013645;28;20415;-70
2023/07/04 03:30:07;;;;;;;3.00;1.90;;;19.70;99.90;;;;;;5013672;28;20423;-71
2023/07/04 03:32:33;;;;;;;3.90;2.40;;;19.70;99.90;;;;;;5013529;28;20407;-70
2023/07/04 03:35:02;;;;;;;4.73;2.10;;;19.70;99.90;;;;;;5012890;28;20939;-71
2023/07/04 03:37:31;;;;;;;3.20;2.00;;;19.90;99.90;;;;;;5013193;28;20168;-70
2023/07/04 03:39:57;;;;;;;3.47;2.57;;;19.90;99.90;;;;;;5012873;28;20430;-70
2023/07/04 03:42:24;;;;;;;2.70;2.23;;;19.80;99.90;;;;;;5013314;28;20438;-70
2023/07/04 03:44:50;;;;;;;2.10;1.80;;;19.90;99.90;;;;;;5013782;28;20438;-70
2023/07/04 03:47:15;;;;;;;1.87;1.70;;;19.90;99.90;;;;;;5013245;28;20461;-70
2023/07/04 03:49:41;;;;;;;3.53;2.03;;;20.00;99.90;;;;;;5012730;28;20250;-70
2023/07/04 03:52:07;;;;;;;2.13;1.57;;;20.00;99.90;;;;;;5013148;28;20643;-70
2023/07/04 03:54:33;;;;;;;3.50;2.30;;;19.90;99.90;;;;;;5012803;28;20172;-70
2023/07/04 03:56:58;;;;;;;2.80;1.77;;;20.00;99.90;;;;;;5013297;28;20179;-70
2023/07/04 03:59:24;;;;;;;2.90;1.97;;;20.00;99.90;;;;;;5015359;28;20559;-70
2023/07/04 04:01:49;;;;;;;3.27;1.70;;;20.10;99.90;;;;;;5013357;28;20168;-70
2023/07/04 04:04:15;;;;;;;2.03;1.83;;;20.20;99.90;;;;;;5012017;28;20188;-70
2023/07/04 04:06:41;;;;;;;2.13;1.93;;;20.20;99.90;;;;;;5012948;28;20168;-70
2023/07/04 04:09:06;;;;;;;4.07;1.60;;;20.30;99.90;;;;;;5012967;28;20558;-70
2023/07/04 04:11:32;;;;;;;2.33;1.90;;;20.30;99.90;;;;;;5013253;28;20171;-70
2023/07/04 04:13:58;;;;;;;2.70;2.30;;;20.20;99.90;;;;;;5013180;28;20168;-70
2023/07/04 04:16:23;;;;;;;2.27;1.63;;;20.10;99.90;;;;;;5011724;28;20191;-70
2023/07/04 04:18:52;;;;;;;3.87;1.90;;;20.20;99.90;;;;;;5012582;28;20218;-70
2023/07/04 04:21:17;;;;;;;2.00;1.80;;;20.10;99.90;;;;;;5012573;28;20164;-70
2023/07/04 04:23:43;;;;;;;2.83;1.90;;;20.00;99.90;;;;;;5012549;28;20426;-70
2023/07/04 04:26:09;;;;;;;2.43;2.10;;;20.00;99.90;;;;;;5013062;28;20200;-70
2023/07/04 04:28:35;;;;;;;2.20;1.73;;;20.00;99.90;;;;;;5012768;28;20191;-70
2023/07/04 04:31:01;;;;;;;2.20;2.00;;;20.00;99.90;;;;;;5013030;28;20905;-70
2023/07/04 04:33:26;;;;;;;1.70;1.60;;;20.10;99.90;;;;;;5012729;28;20243;-70
2023/07/04 04:35:52;;;;;;;2.20;1.97;;;20.10;99.90;;;;;;5012339;28;20410;-70
2023/07/04 04:38:17;;;;;;;3.33;2.30;;;20.20;99.90;;;;;;5013061;28;20270;-70
2023/07/04 04:40:43;;;;;;;2.00;1.83;;;20.30;99.90;;;;;;5012504;28;20164;-70
2023/07/04 04:43:09;;;;;;;2.90;2.13;;;20.40;99.90;;;;;;5012832;28;20176;-70
2023/07/04 04:45:36;;;;;;;2.60;2.07;;;20.50;99.90;;;;;;5012993;28;20195;-70
2023/07/04 04:48:06;;;;;;;2.40;1.83;;;20.50;99.90;;;;;;5012379;28;20156;-70
2023/07/04 04:50:31;;;;;;;2.10;1.90;;;20.40;99.90;;;;;;5012276;28;20768;-70
2023/07/04 04:52:58;;;;;;;5.53;2.60;;;20.30;99.90;;;;;;5012539;28;20494;-70
2023/07/04 04:55:24;;;;;;;2.60;2.13;;;20.20;99.90;;;;;;5012685;28;20264;-70
2023/07/04 04:57:50;;;;;;;3.00;2.30;;;20.20;99.90;;;;;;5012323;28;20835;-70
2023/07/04 05:00:16;;;;;;;2.27;2.07;;;20.20;99.90;;;;;;5012285;28;20227;-70
2023/07/04 05:02:44;;;;;;;2.03;1.83;;;20.40;99.90;;;;;;5012295;28;20176;-70
2023/07/04 05:05:13;;;;;;;2.57;1.80;;;20.60;99.90;;;;;;5013444;28;20545;-70
2023/07/04 05:07:39;;;;;;;4.50;2.00;;;20.60;99.90;;;;;;5015708;28;20520;-70
2023/07/04 05:10:05;;;;;;;2.70;2.50;;;20.70;99.90;;;;;;5015818;28;20419;-70
2023/07/04 05:12:32;;;;;;;5.83;2.17;;;20.70;99.90;;;;;;5015849;28;20250;-70
2023/07/04 05:14:58;;;;;;;3.33;2.37;;;20.60;99.90;;;;;;5015463;28;20439;-70
2023/07/04 05:17:24;;;;;;;5.10;2.90;;;20.80;99.90;;;;;;5015306;28;20549;-70
2023/07/04 05:19:51;;;;;;;3.53;2.43;;;20.90;99.90;;;;;;5015186;28;20219;-70
2023/07/04 05:22:17;;;;;;;3.50;2.40;;;21.10;99.90;;;;;;5016022;28;20399;-70
2023/07/04 05:24:42;;;;;;;3.20;2.20;;;21.10;99.90;;;;;;5015702;28;20529;-70
2023/07/04 05:27:08;;;;;;;2.30;1.90;;;21.30;99.90;;;;;;5016204;28;20445;-71
2023/07/04 05:29:34;;;;;;;4.73;2.60;;;21.00;99.90;;;;;;5016979;28;20266;-70
2023/07/04 05:31:59;;;;;;;6.60;2.90;;;21.00;99.90;;;;;;5015836;28;20211;-70
2023/07/04 05:34:25;;;;;;;4.83;2.87;;;21.10;99.90;;;;;;5015085;28;20204;-70
2023/07/04 05:36:51;;;;;;;3.57;2.60;;;21.00;99.90;;;;;;5014691;28;20251;-70
2023/07/04 05:39:16;;;;;;;3.20;2.37;;;21.20;99.90;;;;;;5014859;28;20526;-70
2023/07/04 05:41:42;;;;;;;3.17;2.47;;;21.20;99.90;;;;;;5015469;28;20172;-70
2023/07/04 05:44:09;;;;;;;4.70;2.60;;;21.30;99.90;;;;;;5015789;28;20176;-70
2023/07/04 05:46:35;;;;;;;3.20;2.30;;;21.30;99.90;;;;;;5015333;28;20192;-70
2023/07/04 05:49:02;;;;;;;4.70;2.60;;;21.40;99.90;;;;;;5015054;28;20430;-70
2023/07/04 05:51:28;;;;;;;5.30;2.83;;;21.30;99.90;;;;;;5014969;28;20936;-70
2023/07/04 05:53:55;;;;;;;4.43;2.40;;;21.10;99.90;;;;;;5015288;28;20441;-70
2023/07/04 05:56:26;;;;;;;4.93;2.50;;;21.40;99.90;;;;;;5015357;28;20411;-70
2023/07/04 05:59:00;;;;;;;4.07;2.70;;;21.50;99.90;;;;;;5015022;28;20450;-69
2023/07/04 06:01:32;;;;;;;7.43;3.17;;;21.70;99.90;;;;;;5015356;28;20457;-71
2023/07/04 06:03:59;;;;;;;9.67;3.20;;;21.60;99.90;;;;;;5013936;28;20453;-71
2023/07/04 06:06:30;;;;;;;5.93;2.70;;;21.60;99.90;;;;;;5016930;28;20410;-71
2023/07/04 06:08:58;;;;;;;6.90;2.90;;;21.60;99.90;;;;;;5013459;28;20422;-71
2023/07/04 06:11:26;;;;;;;5.50;2.97;;;21.70;99.90;;;;;;5014999;28;20759;-71
2023/07/04 06:13:53;;;;;;;4.33;2.30;;;21.80;99.90;;;;;;5015370;28;20453;-71
2023/07/04 06:16:20;;;;;;;4.57;2.57;;;21.80;99.90;;;;;;5014354;28;20422;-71
2023/07/04 06:18:46;;;;;;;2.87;2.57;;;21.90;99.90;;;;;;5014509;28;20526;-71
2023/07/04 06:21:15;;;;;;;7.40;2.63;;;22.00;99.90;;;;;;5014379;28;20921;-71
2023/07/04 06:23:41;;;;;;;3.27;2.47;;;21.90;99.90;;;;;;5014590;28;20553;-71
2023/07/04 06:26:08;;;;;;;6.63;3.20;;;21.90;99.90;;;;;;5014776;28;20482;-71
2023/07/04 06:28:36;;;;;;;6.50;3.27;;;22.20;99.90;;;;;;5014143;28;20435;-71
2023/07/04 06:31:06;;;;;;;5.00;2.83;;;22.20;99.90;;;;;;5014708;28;20403;-72
2023/07/04 06:33:32;;;;;;;4.23;2.93;;;22.40;99.90;;;;;;5014154;28;20411;-72
2023/07/04 06:35:58;;;;;;;4.77;2.70;;;22.60;99.90;;;;;;5014396;28;20573;-72
2023/07/04 06:38:25;;;;;;;7.23;2.73;;;22.80;99.90;;;;;;5014447;28;20484;-72
2023/07/04 06:41:01;;;;;;;8.70;3.30;;;22.70;99.90;;;;;;5014558;28;20438;-72
2023/07/04 06:43:29;;;;;;;7.80;3.20;;;22.80;99.90;;;;;;5013262;28;20407;-71
2023/07/04 06:45:55;;;;;;;7.63;3.07;;;23.00;99.90;;;;;;5014511;28;20446;-74
2023/07/04 06:48:22;;;;;;;3.90;3.03;;;22.80;99.90;;;;;;5014690;28;20427;-72
2023/07/04 06:51:06;;;;;;;6.50;3.63;;;22.90;99.90;;;;;;5014142;28;20453;-74
2023/07/04 06:53:33;;;;;;;5.80;3.17;;;22.80;99.90;;;;;;5013355;28;20779;-72
2023/07/04 06:56:04;;;;;;;8.53;3.93;;;22.90;99.90;;;;;;5013973;28;20415;-72
2023/07/04 06:58:30;;;;;;;6.17;3.00;;;23.10;99.90;;;;;;5013812;28;20443;-71
2023/07/04 07:00:56;;;;;;;6.40;3.30;;;23.10;99.90;;;;;;5014346;28;20404;-72
2023/07/04 07:03:21;;;;;;;6.63;3.70;;;23.40;99.90;;;;;;5013309;28;20176;-72
2023/07/04 07:05:47;;;;;;;6.37;3.40;;;23.10;99.90;;;;;;5013142;28;20195;-71
2023/07/04 07:08:14;;;;;;;5.13;3.10;;;23.20;99.90;;;;;;5013701;28;20192;-71
2023/07/04 07:10:49;;;;;;;8.10;2.83;;;23.00;99.90;;;;;;5013654;28;20174;-71
2023/07/04 07:13:15;;;;;;;5.83;3.33;;;23.10;99.90;;;;;;5014249;28;20383;-71
2023/07/04 07:15:40;;;;;;;4.40;3.20;;;23.00;99.90;;;;;;5013902;28;20774;-71
2023/07/04 07:18:06;;;;;;;7.20;3.50;;;22.80;99.90;;;;;;5013467;28;20556;-71
2023/07/04 07:20:31;;;;;;;5.60;3.93;;;22.90;99.90;;;;;;5013159;28;20262;-71
2023/07/04 07:22:57;;;;;;;4.77;3.10;;;22.90;99.90;;;;;;5013699;28;20176;-71
2023/07/04 07:25:22;;;;;;;5.03;3.53;;;23.10;99.90;;;;;;5014283;28;20192;-73
2023/07/04 07:27:48;;;;;;;5.40;4.10;;;23.00;99.90;;;;;;5012625;28;20230;-71
2023/07/04 07:30:14;;;;;;;4.60;3.70;;;23.10;99.90;;;;;;5013447;28;20528;-71
2023/07/04 07:32:39;;;;;;;6.90;4.47;;;22.90;99.90;;;;;;5013576;28;20168;-71
2023/07/04 07:35:05;;;;;;;5.67;3.10;;;23.00;99.90;;;;;;5013185;28;20183;-72
2023/07/04 07:37:31;;;;;;;6.50;3.50;;;23.10;99.90;;;;;;5013339;28;20163;-71
2023/07/04 07:39:57;;;;;;;4.70;2.90;;;22.80;99.90;;;;;;5012819;28;20542;-71
2023/07/04 07:42:22;;;;;;;6.23;3.23;;;23.10;99.90;;;;;;5013218;28;20274;-71
2023/07/04 07:44:48;;;;;;;5.63;3.50;;;23.00;99.90;;;;;;5012196;28;20268;-71
2023/07/04 07:47:13;;;;;;;6.80;3.20;;;23.20;99.90;;;;;;5013182;28;20164;-71
2023/07/04 07:49:39;;;;;;;5.13;3.17;;;23.20;99.90;;;;;;5012744;28;20287;-72
2023/07/04 07:52:05;;;;;;;7.30;4.33;;;23.50;99.90;;;;;;5013427;28;20160;-72
2023/07/04 07:54:31;;;;;;;5.80;4.23;;;23.10;99.90;;;;;;5013594;28;20187;-71
2023/07/04 07:56:57;;;;;;;4.83;3.50;;;23.10;99.90;;;;;;5013197;28;20399;-71
2023/07/04 07:59:22;;;;;;;7.77;3.87;;;23.40;99.90;;;;;;5012960;28;20682;-72
2023/07/04 08:01:48;;;;;;;7.37;3.93;;;23.60;99.90;;;;;;5014058;28;20525;-71
2023/07/04 08:04:14;;;;;;;5.23;3.93;;;23.70;99.90;;;;;;5013235;28;20229;-72
2023/07/04 08:06:42;;;;;;;6.13;4.10;;;23.70;99.90;;;;;;5013004;28;20539;-71
2023/07/04 08:09:11;;;;;;;5.83;3.60;;;23.80;99.70;;;;;;5012921;28;20187;-71
2023/07/04 08:11:38;;;;;;;5.00;3.37;;;24.00;99.40;;;;;;5012715;28;20772;-71
2023/07/04 08:14:03;;;;;;;6.70;3.70;;;24.00;99.30;;;;;;5012829;28;20403;-71
2023/07/04 08:16:40;;;;;;;6.90;3.43;;;24.00;99.90;;;;;;5012934;28;20418;-71
2023/07/04 08:19:06;;;;;;;6.43;4.20;;;24.20;99.80;;;;;;5011079;28;20198;-71
2023/07/04 08:21:31;;;;;;;5.63;4.00;;;23.80;98.70;;;;;;5012077;28;20407;-71
2023/07/04 08:23:58;;;;;;;11.10;3.60;;;23.90;99.60;;;;;;5012614;28;20164;-71
2023/07/04 08:26:26;;;;;;;7.23;4.10;;;24.20;99.10;;;;;;5012520;28;20192;-71
2023/07/04 08:28:55;;;;;;;3.73;3.33;;;24.20;99.70;;;;;;5011510;28;20805;-72
2023/07/04 08:31:22;;;;;;;6.87;4.60;;;24.20;98.80;;;;;;5012504;28;20403;-71
2023/07/04 08:33:48;;;;;;;5.73;4.40;;;24.30;98.30;;;;;;5012504;28;20430;-71
2023/07/04 08:36:15;;;;;;;6.87;4.40;;;24.50;97.30;;;;;;5012124;28;20533;-71
2023/07/04 08:38:41;;;;;;;6.17;3.93;;;24.30;97.30;;;;;;5012638;28;20415;-71
2023/07/04 08:41:31;;;;;;;7.83;3.93;;;24.30;97.80;;;;;;5016674;28;20452;-71
2023/07/04 08:44:09;;;;;;;6.87;4.53;;;24.60;97.60;;;;;;5016703;28;20768;-71
2023/07/04 08:46:42;;;;;;;7.70;4.33;;;24.50;96.80;;;;;;5016363;28;20383;-71
2023/07/04 08:49:20;;;;;;;4.53;3.90;;;24.30;96.50;;;;;;5016621;28;20419;-71
2023/07/04 08:51:54;;;;;;;8.10;4.20;;;24.20;96.80;;;;;;5016127;28;20753;-71
2023/07/04 08:54:20;;;;;;;5.63;4.20;;;24.50;96.40;;;;;;5016528;28;20375;-71
2023/07/04 08:56:46;;;;;;;10.47;5.13;;;24.10;96.30;;;;;;5016219;28;20441;-72
2023/07/04 08:59:37;;;;;;;10.03;4.60;;;24.30;96.70;;;;;;5015966;28;20686;-71
2023/07/04 09:02:06;;;;;;;9.43;4.60;;;24.10;96.60;;;;;;5014855;28;20489;-71
2023/07/04 09:04:55;;;;;;;6.73;4.57;;;24.10;96.90;;;;;;5015174;28;20446;-71
2023/07/04 09:07:23;;;;;;;5.33;4.20;;;24.10;97.00;;;;;;5016324;28;20763;-71
2023/07/04 09:10:00;;;;;;;11.47;5.40;;;24.40;96.80;;;;;;5015795;28;20846;-71
2023/07/04 09:12:34;;;;;;;10.70;5.10;;;24.40;96.70;;;;;;5016243;28;20379;-71
2023/07/04 09:15:13;;;;;;;6.53;5.20;;;24.50;96.60;;;;;;5016177;28;20445;-71
2023/07/04 09:17:46;;;;;;;8.83;5.00;;;24.30;96.50;;;;;;5015892;28;20383;-70
2023/07/04 09:20:12;;;;;;;7.57;4.93;;;24.30;97.00;;;;;;5015343;28;20477;-71
2023/07/04 09:22:37;;;;;;;6.60;4.97;;;24.60;96.80;;;;;;5016164;28;20443;-71
2023/07/04 09:25:04;;;;;;;6.33;4.63;;;24.60;96.60;;;;;;5016184;28;20547;-71
2023/07/04 09:27:30;;;;;;;7.50;4.97;;;24.90;96.70;;;;;;5015712;28;20251;-71
2023/07/04 09:29:59;;;;;;;8.70;5.50;;;25.00;96.00;;;;;;5015660;28;20451;-71
2023/07/04 09:32:25;;;;;;;8.73;6.03;;;25.00;95.30;;;;;;5015773;28;20172;-71
2023/07/04 09:34:55;;;;;;;10.23;7.67;;;24.80;95.20;;;;;;5015287;28;20415;-71
2023/07/04 09:37:23;;;;;;;8.60;7.70;;;25.00;93.90;;;;;;5015561;28;20196;-71
2023/07/04 09:39:54;;;;;;;9.70;6.40;;;25.20;93.20;;;;;;5015379;28;20798;-71
2023/07/04 09:42:40;;;;;;;8.80;6.63;;;25.40;92.90;;;;;;5015804;28;20763;-71
2023/07/04 09:45:09;;;;;;;8.60;6.43;;;25.60;92.00;;;;;;5015542;28;20427;-71
2023/07/04 09:47:36;;;;;;;6.67;5.93;;;25.30;92.30;;;;;;5014174;28;20435;-71
2023/07/04 09:50:26;;;;;;;6.80;5.90;;;25.40;93.50;;;;;;5013344;28;20968;-71
2023/07/04 09:53:08;;;;;;;7.40;6.63;;;25.50;92.80;;;;;;5015472;28;20745;-71
2023/07/04 09:55:34;;;;;;;8.00;6.23;;;25.50;92.70;;;;;;5015783;28;20387;-71
2023/07/04 09:58:20;;;;;;;7.77;5.20;;;25.40;92.80;;;;;;5015251;28;20441;-71
2023/07/04 10:01:14;;;;;;;7.93;5.83;;;25.50;93.30;;;;;;5015271;28;20486;-71
2023/07/04 10:03:40;;;;;;;7.30;5.30;;;25.50;93.00;;;;;;5029494;28;20422;-71
2023/07/04 10:06:08;;;;;;;6.87;4.70;;;25.40;92.90;;;;;;5014650;28;20965;-71
2023/07/04 10:08:55;;;;;;;6.87;5.33;;;25.40;93.20;;;;;;5014982;28;20518;-71
2023/07/04 10:11:34;;;;;;;6.00;5.40;;;25.30;92.30;;;;;;5015120;28;20415;-71
2023/07/04 10:14:06;;;;;;;7.70;6.20;;;25.00;92.70;;;;;;5015401;28;20877;-71
2023/07/04 10:16:33;;;;;;;7.43;6.43;;;25.10;92.20;;;;;;5014431;28;20410;-72
2023/07/04 10:19:21;;;;;;;8.27;6.03;;;25.40;93.10;;;;;;5015056;28;20942;-71
2023/07/04 10:21:52;;;;;;;6.03;5.23;;;25.80;92.90;;;;;;5014916;28;20399;-71
2023/07/04 10:24:20;;;;;;;9.70;5.70;;;25.90;92.60;;;;;;5014802;28;20418;-71
2023/07/04 10:26:49;;;;;;;9.60;6.30;;;26.20;92.00;;;;;;5014636;28;20403;-71
2023/07/04 10:29:59;;;;;;;7.03;5.40;;;25.80;91.10;;;;;;5014539;28;20492;-71
2023/07/04 10:32:26;;;;;;;6.30;5.27;;;26.00;91.10;;;;;;4981658;28;20510;-71
2023/07/04 10:34:52;;;;;;;7.40;6.10;;;26.50;90.50;;;;;;5013995;28;20505;-71
2023/07/04 10:37:34;;;;;;;6.70;5.73;;;27.00;87.60;;;;;;5014584;28;20437;-71
2023/07/04 10:40:05;;;;;;;6.77;5.47;;;27.20;85.10;;;;;;5013950;28;20781;-71
2023/07/04 10:42:40;;;;;;;6.73;5.30;;;27.00;85.00;;;;;;5013982;28;20493;-71
2023/07/04 10:45:09;;;;;;;6.10;5.50;;;26.60;87.10;;;;;;4995037;28;20485;-71
2023/07/04 10:47:38;;;;;;;7.80;5.83;;;26.30;86.20;;;;;;4994533;28;20415;-71
2023/07/04 10:50:15;;;;;;;8.30;5.80;;;26.00;88.50;;;;;;4994316;28;20439;-71
2023/07/04 10:52:44;;;;;;;7.00;5.53;;;25.80;88.70;;;;;;4994123;28;20490;-71
2023/07/04 10:55:17;;;;;;;9.80;5.73;;;26.10;88.70;;;;;;4994357;28;20895;-71
2023/07/04 10:57:56;;;;;;;11.27;6.10;;;26.00;88.20;;;;;;4992931;28;20416;-71
2023/07/04 11:00:39;;;;;;;9.03;6.10;;;25.50;89.70;;;;;;4993916;28;20486;-71
2023/07/04 11:03:14;;;;;;;8.20;6.00;;;25.30;90.70;;;;;;4993364;28;20499;-72
2023/07/04 11:05:47;;;;;;;8.10;5.83;;;25.10;90.20;;;;;;5010794;28;20458;-72
2023/07/04 11:08:17;;;;;;;6.30;5.70;;;24.90;90.20;;;;;;5013314;28;20494;-72
2023/07/04 11:10:45;;;;;;;8.70;5.97;;;25.00;90.80;;;;;;5013738;28;20418;-72
2023/07/04 11:13:19;;;;;;;5.87;5.33;;;25.20;90.20;;;;;;5013651;28;20410;-72
2023/07/04 11:15:53;;;;;;;6.73;5.80;;;25.80;90.50;;;;;;5013746;28;20478;-71
2023/07/04 11:18:25;;;;;;;7.03;6.20;;;25.90;89.20;;;;;;5013599;28;20430;-72
2023/07/04 11:21:05;;;;;;;8.20;5.87;;;25.90;87.70;;;;;;5013348;28;20403;-71
2023/07/04 11:23:49;;;;;;;6.53;5.80;;;26.10;88.10;;;;;;5013768;28;20423;-72
2023/07/04 11:26:17;;;;;;;8.17;6.03;;;26.30;87.00;;;;;;5012847;28;20457;-72
2023/07/04 11:28:46;;;;;;;5.47;4.90;;;27.00;86.80;;;;;;5013611;28;20477;-72
2023/07/04 11:31:18;;;;;;;6.67;4.77;;;27.40;83.70;;;;;;5013228;28;21013;-72
2023/07/04 11:34:02;;;;;;;6.97;5.47;;;27.40;82.90;;;;;;5013580;28;20394;-72
2023/07/04 11:36:54;;;;;;;8.07;5.60;;;28.40;81.70;;;;;;5013436;28;20399;-72
2023/07/04 11:39:31;;;;;;;5.10;4.40;;;29.90;76.30;;;;;;5013383;28;20423;-72
2023/07/04 11:42:07;;;;;;;5.97;4.60;;;31.90;69.80;;;;;;5013670;28;20394;-72
2023/07/04 11:44:48;;;;;;;7.00;4.77;;;32.20;65.00;;;;;;5011792;28;20821;-72
2023/07/04 11:47:18;;;;;;;6.63;4.40;;;32.10;60.80;;;;;;5012536;28;20398;-72
2023/07/04 11:49:55;;;;;;;5.93;4.00;;;32.80;61.70;;;;;;5012895;28;20431;-72
2023/07/04 11:52:25;;;;;;;5.43;4.20;;;32.40;58.20;;;;;;5013324;28;20419;-73
2023/07/04 11:54:59;;;;;;;4.60;4.07;;;32.00;59.10;;;;;;5013032;28;20413;-72
2023/07/04 11:57:55;;;;;;;4.70;4.20;;;33.20;55.70;;;;;;5013300;28;20920;-72
2023/07/04 12:00:44;;;;;;;6.70;4.73;;;32.30;56.50;;;;;;5013298;28;20813;-71
2023/07/04 12:03:19;;;;;;;6.03;5.10;;;30.70;58.30;;;;;;5012864;28;20410;-71
2023/07/04 12:05:50;;;;;;;7.87;4.70;;;30.20;60.50;;;;;;5011612;28;20544;-71
2023/07/04 12:08:42;;;;;;;7.20;5.30;;;30.80;60.90;;;;;;5013133;28;20462;-71
2023/07/04 12:11:20;;;;;;;5.87;5.23;;;31.60;60.00;;;;;;5014322;28;20812;-71
2023/07/04 12:13:49;;;;;;;6.07;4.60;;;33.00;58.00;;;;;;4993465;28;20757;-71
2023/07/04 12:16:19;;;;;;;5.93;4.80;;;31.00;58.80;;;;;;4993459;28;20534;-71
2023/07/04 12:18:45;;;;;;;6.93;5.07;;;29.10;62.90;;;;;;4991934;28;21022;-71
2023/07/04 12:21:17;;;;;;;7.53;4.90;;;28.40;64.70;;;;;;4993318;28;20757;-72
2023/07/04 12:23:44;;;;;;;9.40;5.20;;;28.00;66.20;;;;;;4993463;28;20483;-71
2023/07/04 12:26:18;;;;;;;5.90;5.10;;;27.60;67.20;;;;;;4997979;28;20545;-71
2023/07/04 12:28:47;;;;;;;6.03;4.70;;;28.70;64.50;;;;;;5013424;28;20426;-71
2023/07/04 12:31:14;;;;;;;7.93;5.37;;;28.60;63.70;;;;;;5013310;28;20766;-71
2023/07/04 12:33:41;;;;;;;5.83;4.93;;;28.30;65.70;;;;;;5012469;28;20414;-72
2023/07/04 12:36:09;;;;;;;5.80;5.30;;;28.30;65.00;;;;;;5012751;28;20439;-71
2023/07/04 12:38:45;;;;;;;6.00;4.90;;;28.10;66.80;;;;;;5013102;28;20442;-71
2023/07/04 12:41:16;;;;;;;8.83;5.00;;;28.00;65.80;;;;;;5012899;28;20394;-71
2023/07/04 12:43:41;;;;;;;5.23;4.53;;;28.30;65.30;;;;;;5013559;28;20395;-73
2023/07/04 12:46:21;;;;;;;5.57;4.80;;;30.00;62.10;;;;;;5012741;28;20454;-71
2023/07/04 12:48:47;;;;;;;6.23;4.90;;;31.10;59.40;;;;;;5012701;28;20188;-71
2023/07/04 12:51:19;;;;;;;5.20;4.10;;;32.40;57.60;;;;;;5012220;28;20501;-71
2023/07/04 12:53:46;;;;;;;5.53;5.03;;;33.60;54.80;;;;;;5012652;28;20397;-71
2023/07/04 12:56:12;;;;;;;5.77;4.90;;;34.00;52.70;;;;;;5012389;28;20497;-71